Time;durP1;ratioP1;P1;durP2;ratioP2;P2;SDS_P1;SDS_P2;PMS_P1;PMS_P2;Temp;Humidity;BMP_temperature;BMP_pressure;BME280_temperature;BME280_humidity;BME280_pressure;Samples;Min_cycle;Max_cycle;Signal;HPM_P1;HPM_P2
2023/02/23 00:01:41;;;;;;;36.90;25.97;;;;;;;;;;5050148;28;20457;-76
2023/02/23 00:04:08;;;;;;;38.50;24.90;;;;;;;;;;5044119;28;20831;-77
2023/02/23 00:06:36;;;;;;;36.60;25.90;;;;;;;;;;5033062;28;20469;-76
2023/02/23 00:09:21;;;;;;;38.43;27.83;;;;;;;;;;5033007;28;20448;-76
2023/02/23 00:11:48;;;;;;;37.13;23.97;;;;;;;;;;5032093;28;20453;-75
2023/02/23 00:14:15;;;;;;;41.27;26.37;;;;;;;;;;5032614;28;20833;-76
2023/02/23 00:16:44;;;;;;;40.77;25.47;;;;;;;;;;5037144;28;21035;-76
2023/02/23 00:19:12;;;;;;;37.13;25.10;;;;;;;;;;5032260;28;20977;-76
2023/02/23 00:21:40;;;;;;;40.47;25.73;;;;;;;;;;5037410;28;20453;-76
2023/02/23 00:24:09;;;;;;;35.70;25.37;;;;;;;;;;5052568;28;20438;-76
2023/02/23 00:26:37;;;;;;;41.40;26.70;;;;;;;;;;5050469;28;20841;-77
2023/02/23 00:29:06;;;;;;;36.93;24.33;;;;;;;;;;5052419;28;20937;-76
2023/02/23 00:31:33;;;;;;;36.37;25.77;;;;;;;;;;5038977;28;20469;-76
2023/02/23 00:34:01;;;;;;;36.30;25.00;;;;;;;;;;5044500;28;20507;-75
2023/02/23 00:36:30;;;;;;;38.33;26.60;;;;;;;;;;5035867;28;20494;-76
2023/02/23 00:38:59;;;;;;;40.80;26.03;;;;;;;;;;5033424;28;21416;-76
2023/02/23 00:41:28;;;;;;;32.60;23.77;;;;;;;;;;5048932;28;20485;-76
2023/02/23 00:43:56;;;;;;;38.63;26.70;;;;;;;;;;5041524;28;20446;-75
2023/02/23 00:46:23;;;;;;;35.60;25.10;;;;;;;;;;5032268;28;20508;-76
2023/02/23 00:48:51;;;;;;;41.03;27.80;;;;;;;;;;5031202;28;20504;-76
2023/02/23 00:51:19;;;;;;;40.03;27.10;;;;;;;;;;5031798;28;20469;-75
2023/02/23 00:53:46;;;;;;;44.57;30.13;;;;;;;;;;5031983;28;20488;-76
2023/02/23 00:56:13;;;;;;;44.83;27.07;;;;;;;;;;5045647;28;20508;-76
2023/02/23 00:58:42;;;;;;;42.83;27.90;;;;;;;;;;5051468;28;20445;-76
2023/02/23 01:01:10;;;;;;;44.37;28.67;;;;;;;;;;5051534;28;20452;-77
2023/02/23 01:03:37;;;;;;;51.20;29.73;;;;;;;;;;5051019;28;20450;-76
2023/02/23 01:06:05;;;;;;;41.40;28.40;;;;;;;;;;5051858;28;20465;-76
2023/02/23 01:08:33;;;;;;;43.47;29.07;;;;;;;;;;5052171;28;20926;-77
2023/02/23 01:11:00;;;;;;;47.87;28.00;;;;;;;;;;5051939;28;20472;-76
2023/02/23 01:13:28;;;;;;;47.70;29.37;;;;;;;;;;5051530;28;20965;-76
2023/02/23 01:15:57;;;;;;;41.07;27.07;;;;;;;;;;5048771;28;20485;-76
2023/02/23 01:18:24;;;;;;;44.10;29.80;;;;;;;;;;5051783;28;20455;-77
2023/02/23 01:20:51;;;;;;;47.77;29.27;;;;;;;;;;5049415;28;20457;-77
2023/02/23 01:23:19;;;;;;;50.67;29.60;;;;;;;;;;5051576;28;20445;-76
2023/02/23 01:25:46;;;;;;;47.73;30.70;;;;;;;;;;5043423;28;20478;-76
2023/02/23 01:28:13;;;;;;;49.43;30.53;;;;;;;;;;5032104;28;20456;-77
2023/02/23 01:30:41;;;;;;;49.80;31.10;;;;;;;;;;5035526;28;20446;-76
2023/02/23 01:33:11;;;;;;;47.07;29.77;;;;;;;;;;5043992;28;20461;-75
2023/02/23 01:35:38;;;;;;;50.20;30.13;;;;;;;;;;5055447;28;20489;-77
2023/02/23 01:38:05;;;;;;;56.90;33.43;;;;;;;;;;5041185;28;20462;-76
2023/02/23 01:40:35;;;;;;;49.20;29.60;;;;;;;;;;5035326;28;20969;-76
2023/02/23 01:43:11;;;;;;;50.67;31.40;;;;;;;;;;5035208;28;20453;-76
2023/02/23 01:45:39;;;;;;;51.93;32.90;;;;;;;;;;5038549;28;20960;-76
2023/02/23 01:48:11;;;;;;;51.50;32.80;;;;;;;;;;5053043;28;20464;-76
2023/02/23 01:50:43;;;;;;;54.90;32.40;;;;;;;;;;5055385;28;20452;-77
2023/02/23 01:53:10;;;;;;;52.43;34.03;;;;;;;;;;5036470;28;20468;-77
2023/02/23 01:55:38;;;;;;;54.03;34.30;;;;;;;;;;5034313;28;20481;-76
2023/02/23 01:58:10;;;;;;;54.40;32.40;;;;;;;;;;5035460;28;20449;-76
2023/02/23 02:00:37;;;;;;;54.23;31.03;;;;;;;;;;5034899;28;20460;-76
2023/02/23 02:03:07;;;;;;;48.27;32.67;;;;;;;;;;5043284;28;20461;-77
2023/02/23 02:05:37;;;;;;;55.67;34.17;;;;;;;;;;5040248;28;20477;-76
2023/02/23 02:08:13;;;;;;;51.93;32.80;;;;;;;;;;5034631;28;20970;-76
2023/02/23 02:10:45;;;;;;;50.47;31.47;;;;;;;;;;5034029;28;20445;-76
2023/02/23 02:13:14;;;;;;;46.37;31.07;;;;;;;;;;5034970;28;20504;-76
2023/02/23 02:15:52;;;;;;;54.30;33.13;;;;;;;;;;5034759;28;20485;-76
2023/02/23 02:18:27;;;;;;;52.10;33.53;;;;;;;;;;5036918;28;21018;-77
2023/02/23 02:21:05;;;;;;;46.30;32.63;;;;;;;;;;5054835;28;20452;-76
2023/02/23 02:23:45;;;;;;;54.03;32.30;;;;;;;;;;5052951;28;20451;-76
2023/02/23 02:26:20;;;;;;;53.90;32.97;;;;;;;;;;5052724;28;20461;-76
2023/02/23 02:29:01;;;;;;;60.40;32.20;;;;;;;;;;5054008;28;20452;-76
2023/02/23 02:31:44;;;;;;;46.70;30.57;;;;;;;;;;5053247;28;20473;-76
2023/02/23 02:34:25;;;;;;;49.57;32.70;;;;;;;;;;5050863;28;20464;-76
2023/02/23 02:37:07;;;;;;;54.30;30.47;;;;;;;;;;5034738;28;20768;-76
2023/02/23 02:39:43;;;;;;;55.27;33.83;;;;;;;;;;5034644;28;20798;-76
2023/02/23 02:42:17;;;;;;;53.00;31.60;;;;;;;;;;5054157;28;20938;-75
2023/02/23 02:44:49;;;;;;;53.30;33.93;;;;;;;;;;5054670;28;20433;-75
2023/02/23 02:47:18;;;;;;;57.37;33.80;;;;;;;;;;5054523;28;20457;-76
2023/02/23 02:49:49;;;;;;;52.73;33.93;;;;;;;;;;5054221;28;20448;-75
2023/02/23 02:52:18;;;;;;;54.17;35.00;;;;;;;;;;5051911;28;20522;-76
2023/02/23 02:54:48;;;;;;;54.40;33.67;;;;;;;;;;5054336;28;20848;-77
2023/02/23 02:57:16;;;;;;;54.20;33.13;;;;;;;;;;5051592;28;20487;-76
2023/02/23 04:25:37;;;;;;;65.60;37.97;;;;;;;;;;4986193;28;20472;-85
2023/02/23 04:28:22;;;;;;;69.70;36.27;;;;;;;;;;5041930;28;21033;-86
2023/02/23 04:30:54;;;;;;;65.57;37.00;;;;;;;;;;5032095;28;20970;-86
2023/02/23 04:33:28;;;;;;;78.47;38.10;;;;;;;;;;5032116;28;20935;-87
2023/02/23 04:35:56;;;;;;;90.23;38.47;;;;;;;;;;5031929;28;20848;-87
2023/02/23 04:38:30;;;;;;;75.37;38.03;;;;;;;;;;5031938;28;20493;-87
2023/02/23 04:40:58;;;;;;;69.87;39.43;;;;;;;;;;5032543;28;20437;-86
2023/02/23 04:43:27;;;;;;;73.87;39.67;;;;;;;;;;5031407;28;20496;-87
2023/02/23 04:45:54;;;;;;;91.57;46.40;;;;;;;;;;5031833;28;20457;-87
2023/02/23 04:48:23;;;;;;;92.53;42.87;;;;;;;;;;5032256;28;20938;-87
2023/02/23 04:50:54;;;;;;;76.00;40.33;;;;;;;;;;5043633;28;20866;-87
2023/02/23 04:53:46;;;;;;;86.07;41.40;;;;;;;;;;5035591;28;20556;-87
2023/02/23 04:56:15;;;;;;;83.80;42.63;;;;;;;;;;5032055;28;20490;-87
2023/02/23 04:58:46;;;;;;;77.90;42.90;;;;;;;;;;5039386;28;20461;-87
2023/02/23 05:01:14;;;;;;;90.00;44.90;;;;;;;;;;5049152;28;20461;-87
2023/02/23 05:03:41;;;;;;;96.57;43.80;;;;;;;;;;5049506;28;20465;-87
2023/02/23 05:06:11;;;;;;;78.77;42.30;;;;;;;;;;5051763;28;20966;-87
2023/02/23 05:08:41;;;;;;;86.37;40.73;;;;;;;;;;5050427;28;20891;-87
2023/02/23 05:11:10;;;;;;;104.47;42.83;;;;;;;;;;5051436;28;20808;-87
2023/02/23 05:13:39;;;;;;;94.13;45.57;;;;;;;;;;5041947;28;20544;-87
2023/02/23 05:16:10;;;;;;;97.03;44.70;;;;;;;;;;5030887;28;20482;-87
2023/02/23 05:18:46;;;;;;;96.00;43.10;;;;;;;;;;5045116;28;20459;-87
2023/02/23 05:21:16;;;;;;;92.87;44.90;;;;;;;;;;5051540;28;20440;-87
2023/02/23 05:23:47;;;;;;;98.47;44.77;;;;;;;;;;5042735;28;20489;-87
2023/02/23 05:26:20;;;;;;;101.53;45.60;;;;;;;;;;5042760;28;20481;-87
2023/02/23 05:28:55;;;;;;;89.13;42.13;;;;;;;;;;5051706;28;20539;-87
2023/02/23 05:31:33;;;;;;;97.77;43.67;;;;;;;;;;5051232;28;20440;-87
2023/02/23 05:34:01;;;;;;;84.23;41.73;;;;;;;;;;5049029;28;20806;-87
2023/02/23 05:39:31;;;;;;;71.10;38.90;;;;;;;;;;4998667;28;20573;-88
2023/02/23 05:45:18;;;;;;;78.57;39.60;;;;;;;;;;5008773;28;20431;-88
2023/02/23 05:48:31;;;;;;;89.57;41.00;;;;;;;;;;4943104;29;20995;-87
2023/02/23 05:51:02;;;;;;;102.47;42.30;;;;;;;;;;5048967;22;20491;-74
2023/02/23 05:53:29;;;;;;;97.70;45.00;;;;;;;;;;5070548;28;20444;-75
2023/02/23 05:55:56;;;;;;;103.93;47.97;;;;;;;;;;5071317;28;20483;-75
2023/02/23 05:58:24;;;;;;;104.90;43.30;;;;;;;;;;5071494;28;20440;-75
2023/02/23 06:00:51;;;;;;;98.13;43.90;;;;;;;;;;5070146;28;20487;-74
2023/02/23 06:03:18;;;;;;;103.53;42.27;;;;;;;;;;5068884;28;20463;-74
2023/02/23 06:05:50;;;;;;;106.57;45.47;;;;;;;;;;5071299;28;20444;-75
2023/02/23 06:08:19;;;;;;;101.27;43.07;;;;;;;;;;5071430;28;20855;-75
2023/02/23 06:10:46;;;;;;;107.37;43.30;;;;;;;;;;5070998;28;20471;-75
2023/02/23 06:13:13;;;;;;;103.33;43.80;;;;;;;;;;5070017;28;20830;-75
2023/02/23 06:15:41;;;;;;;105.33;44.93;;;;;;;;;;5073804;28;20472;-75
2023/02/23 06:18:08;;;;;;;105.93;43.80;;;;;;;;;;5073313;28;20809;-75
2023/02/23 06:20:36;;;;;;;102.30;46.07;;;;;;;;;;5074511;28;20456;-75
2023/02/23 06:23:03;;;;;;;97.10;42.50;;;;;;;;;;5074790;28;20440;-75
2023/02/23 06:25:32;;;;;;;98.40;41.00;;;;;;;;;;5062444;28;20453;-75
2023/02/23 06:27:59;;;;;;;107.83;45.63;;;;;;;;;;5062733;28;20453;-74
2023/02/23 06:30:26;;;;;;;103.27;44.97;;;;;;;;;;5067114;28;20480;-75
2023/02/23 06:32:53;;;;;;;130.23;50.50;;;;;;;;;;5054442;28;20448;-75
2023/02/23 06:35:20;;;;;;;102.83;48.07;;;;;;;;;;5059392;28;20483;-75
2023/02/23 06:37:47;;;;;;;108.87;44.87;;;;;;;;;;5049224;28;20452;-75
2023/02/23 06:40:14;;;;;;;105.50;45.93;;;;;;;;;;5062703;28;20464;-75
2023/02/23 06:42:43;;;;;;;109.13;47.77;;;;;;;;;;5073173;28;20455;-75
2023/02/23 06:45:12;;;;;;;124.67;51.07;;;;;;;;;;5071734;28;20447;-75
2023/02/23 06:47:39;;;;;;;115.70;47.80;;;;;;;;;;5072909;28;20488;-75
2023/02/23 06:50:06;;;;;;;108.37;44.80;;;;;;;;;;5056551;28;20499;-75
2023/02/23 06:52:34;;;;;;;111.00;46.30;;;;;;;;;;5069422;28;20483;-75
2023/02/23 06:55:01;;;;;;;106.67;44.80;;;;;;;;;;5073053;28;20456;-75
2023/02/23 06:57:28;;;;;;;100.23;46.20;;;;;;;;;;5073769;28;20479;-75
2023/02/23 06:59:56;;;;;;;100.17;46.43;;;;;;;;;;5072352;28;20464;-75
2023/02/23 07:02:24;;;;;;;105.93;44.90;;;;;;;;;;5069745;28;20440;-75
2023/02/23 07:04:51;;;;;;;94.10;43.47;;;;;;;;;;5073141;28;20436;-75
2023/02/23 07:07:18;;;;;;;112.40;47.90;;;;;;;;;;5066866;28;20452;-75
2023/02/23 07:09:45;;;;;;;122.77;47.77;;;;;;;;;;5068122;28;20476;-75
2023/02/23 07:12:12;;;;;;;110.73;48.20;;;;;;;;;;5070312;28;20451;-75
2023/02/23 07:14:39;;;;;;;110.33;50.07;;;;;;;;;;5071939;28;20459;-75
2023/02/23 07:17:08;;;;;;;118.50;49.90;;;;;;;;;;5071218;28;20988;-75
2023/02/23 07:19:35;;;;;;;121.97;48.77;;;;;;;;;;5072878;28;20480;-75
2023/02/23 07:22:03;;;;;;;105.00;45.00;;;;;;;;;;5070594;28;20456;-74
2023/02/23 07:24:31;;;;;;;110.67;50.20;;;;;;;;;;5059121;28;20460;-75
2023/02/23 07:26:58;;;;;;;117.23;47.37;;;;;;;;;;5063467;28;20479;-74
2023/02/23 07:29:27;;;;;;;113.70;46.60;;;;;;;;;;5064847;28;20499;-74
2023/02/23 07:31:54;;;;;;;112.37;46.60;;;;;;;;;;5071963;28;20464;-74
2023/02/23 07:34:22;;;;;;;101.57;47.00;;;;;;;;;;5072998;28;20437;-74
2023/02/23 07:36:49;;;;;;;108.30;45.10;;;;;;;;;;5072758;28;20831;-75
2023/02/23 07:39:16;;;;;;;122.13;48.63;;;;;;;;;;5069873;28;20456;-75
2023/02/23 07:41:44;;;;;;;112.03;46.20;;;;;;;;;;5071774;28;20456;-75
2023/02/23 07:44:12;;;;;;;122.37;46.50;;;;;;;;;;5069630;28;20436;-75
2023/02/23 07:46:40;;;;;;;111.17;45.20;;;;;;;;;;5069247;28;20453;-74
2023/02/23 07:49:08;;;;;;;111.27;47.43;;;;;;;;;;5070089;28;20445;-75
2023/02/23 07:51:36;;;;;;;108.40;41.77;;;;;;;;;;5071636;28;20533;-74
2023/02/23 07:54:04;;;;;;;90.27;44.27;;;;;;;;;;5064747;28;20460;-74
2023/02/23 07:56:31;;;;;;;123.90;48.07;;;;;;;;;;5066637;28;20531;-74
2023/02/23 07:58:58;;;;;;;112.60;45.57;;;;;;;;;;5072267;28;20440;-75
2023/02/23 08:01:25;;;;;;;123.33;47.23;;;;;;;;;;5070551;28;21026;-75
2023/02/23 08:03:52;;;;;;;108.23;44.63;;;;;;;;;;5067694;28;20456;-74
2023/02/23 08:06:20;;;;;;;106.63;46.20;;;;;;;;;;5062576;28;20463;-75
2023/02/23 08:08:48;;;;;;;107.03;44.13;;;;;;;;;;5061377;28;20517;-73
2023/02/23 08:11:15;;;;;;;108.13;47.07;;;;;;;;;;5066658;28;20472;-75
2023/02/23 08:13:42;;;;;;;107.67;45.90;;;;;;;;;;5068637;28;20449;-75
2023/02/23 08:16:11;;;;;;;133.63;50.10;;;;;;;;;;5067398;28;20471;-75
2023/02/23 08:18:38;;;;;;;115.43;47.60;;;;;;;;;;5072056;28;20960;-75
2023/02/23 08:21:06;;;;;;;116.87;45.63;;;;;;;;;;5070476;28;20480;-74
2023/02/23 08:23:34;;;;;;;117.27;43.43;;;;;;;;;;5071839;28;20452;-75
2023/02/23 08:26:03;;;;;;;102.83;43.73;;;;;;;;;;5056835;28;20540;-75
2023/02/23 08:28:30;;;;;;;112.73;45.17;;;;;;;;;;5069625;28;20456;-74
2023/02/23 08:30:58;;;;;;;108.27;43.80;;;;;;;;;;5066871;28;20841;-75
2023/02/23 08:33:25;;;;;;;128.23;47.13;;;;;;;;;;5052106;28;20544;-75
2023/02/23 08:35:52;;;;;;;105.93;44.73;;;;;;;;;;5051895;28;20453;-74
2023/02/23 08:38:19;;;;;;;116.57;43.53;;;;;;;;;;5064725;28;20831;-74
2023/02/23 08:40:46;;;;;;;122.83;45.80;;;;;;;;;;5069893;28;20476;-75
2023/02/23 08:43:15;;;;;;;107.90;42.50;;;;;;;;;;5066655;28;20460;-75
2023/02/23 08:45:42;;;;;;;104.30;44.47;;;;;;;;;;5069263;28;20453;-75
2023/02/23 08:48:09;;;;;;;115.27;43.37;;;;;;;;;;5068144;28;20777;-75
2023/02/23 08:50:36;;;;;;;111.03;43.33;;;;;;;;;;5071906;28;20844;-76
2023/02/23 08:53:04;;;;;;;103.73;44.43;;;;;;;;;;5064195;28;20451;-76
2023/02/23 08:55:32;;;;;;;102.17;43.93;;;;;;;;;;5062847;28;20968;-76
2023/02/23 08:57:59;;;;;;;103.07;43.50;;;;;;;;;;5066061;28;20834;-77
2023/02/23 09:00:28;;;;;;;109.43;43.83;;;;;;;;;;5065333;28;20452;-74
2023/02/23 09:03:24;;;;;;;121.80;44.40;;;;;;;;;;5069414;28;20444;-73
2023/02/23 10:03:27;;;;;;;138.87;46.93;;;;;;;;;;4870197;29;20451;-75
2023/02/23 10:05:56;;;;;;;121.87;46.93;;;;;;;;;;4968063;28;20511;-75
2023/02/23 10:08:29;;;;;;;135.07;48.27;;;;;;;;;;5007703;28;20454;-74
2023/02/23 10:11:00;;;;;;;111.30;41.87;;;;;;;;;;5021228;28;20501;-75
2023/02/23 10:13:32;;;;;;;111.73;43.13;;;;;;;;;;5031327;28;20468;-75
2023/02/23 10:16:04;;;;;;;120.00;43.60;;;;;;;;;;5024120;28;20462;-75
2023/02/23 10:18:36;;;;;;;109.97;41.40;;;;;;;;;;5016692;28;20465;-75
2023/02/23 10:21:06;;;;;;;108.10;44.53;;;;;;;;;;5021455;28;20480;-75
2023/02/23 10:23:34;;;;;;;125.93;44.73;;;;;;;;;;5019217;28;20865;-74
2023/02/23 10:26:03;;;;;;;119.53;42.07;;;;;;;;;;5006595;28;20468;-75
2023/02/23 10:28:34;;;;;;;94.30;44.27;;;;;;;;;;5030090;28;20464;-75
2023/02/23 10:31:01;;;;;;;91.73;39.93;;;;;;;;;;5011654;28;21005;-74
2023/02/23 10:33:33;;;;;;;108.07;42.90;;;;;;;;;;5001901;28;20846;-75
2023/02/23 10:36:09;;;;;;;89.70;39.10;;;;;;;;;;5021260;28;20454;-75
2023/02/23 10:38:36;;;;;;;84.70;39.17;;;;;;;;;;5026887;28;20461;-75
2023/02/23 10:41:04;;;;;;;124.07;41.90;;;;;;;;;;5032671;28;21196;-76
2023/02/23 10:43:31;;;;;;;79.30;39.63;;;;;;;;;;5029387;28;20797;-75
2023/02/23 10:45:58;;;;;;;82.80;38.50;;;;;;;;;;5024905;28;20455;-75
2023/02/23 10:48:27;;;;;;;92.43;39.07;;;;;;;;;;5030250;28;20438;-75
2023/02/23 10:50:57;;;;;;;87.87;40.70;;;;;;;;;;5017340;28;21016;-74
2023/02/23 10:53:27;;;;;;;76.13;36.20;;;;;;;;;;5030796;28;20457;-77
2023/02/23 10:56:01;;;;;;;84.30;37.80;;;;;;;;;;5031206;28;20458;-76
2023/02/23 10:58:29;;;;;;;84.17;38.17;;;;;;;;;;5029539;28;20481;-75
2023/02/23 11:00:57;;;;;;;84.60;39.40;;;;;;;;;;5024085;28;20466;-75
2023/02/23 11:03:27;;;;;;;83.43;38.17;;;;;;;;;;5033885;28;20453;-75
2023/02/23 11:05:54;;;;;;;110.77;40.97;;;;;;;;;;5025371;28;20454;-76
2023/02/23 11:08:23;;;;;;;100.10;41.57;;;;;;;;;;5024259;28;20454;-76
2023/02/23 11:11:11;;;;;;;106.67;43.20;;;;;;;;;;5027636;28;20513;-75
2023/02/23 11:13:41;;;;;;;100.07;40.53;;;;;;;;;;5021423;28;20469;-76
2023/02/23 11:16:10;;;;;;;96.67;43.20;;;;;;;;;;5022298;28;20481;-77
2023/02/23 11:18:37;;;;;;;109.83;45.20;;;;;;;;;;5027135;28;20482;-75
2023/02/23 11:21:09;;;;;;;122.47;45.93;;;;;;;;;;5009092;28;20481;-77
2023/02/23 11:23:37;;;;;;;111.33;45.20;;;;;;;;;;5029745;28;20473;-77
2023/02/23 11:26:07;;;;;;;121.33;46.00;;;;;;;;;;5019442;28;20901;-77
2023/02/23 11:28:36;;;;;;;118.40;44.57;;;;;;;;;;5033316;28;20838;-76
2023/02/23 11:31:11;;;;;;;124.33;44.73;;;;;;;;;;5006877;28;20489;-75
2023/02/23 11:33:39;;;;;;;115.07;41.80;;;;;;;;;;5030179;28;20462;-76
2023/02/23 11:36:17;;;;;;;113.03;44.10;;;;;;;;;;5018634;28;21001;-76
2023/02/23 11:38:45;;;;;;;126.33;42.90;;;;;;;;;;5023906;28;20569;-76
2023/02/23 11:41:20;;;;;;;137.50;44.83;;;;;;;;;;5027479;28;20561;-76
2023/02/23 11:43:49;;;;;;;113.90;42.20;;;;;;;;;;5021998;28;20453;-76
2023/02/23 11:46:20;;;;;;;127.13;44.40;;;;;;;;;;5026327;28;20967;-75
2023/02/23 11:48:50;;;;;;;156.13;49.60;;;;;;;;;;5029692;28;20986;-77
2023/02/23 11:56:32;;;;;;;165.47;51.10;;;;;;;;;;5525240;22;20491;-85
2023/02/23 11:59:31;;;;;;;;;;;;;;;;;;;;;
2023/02/23 12:02:11;;;;;;;155.63;48.93;;;;;;;;;;5016290;28;20469;-87
2023/02/23 12:04:42;;;;;;;170.57;54.20;;;;;;;;;;5039896;28;20959;-86
2023/02/23 12:07:26;;;;;;;169.50;48.07;;;;;;;;;;5013786;28;20454;-85
2023/02/23 12:09:59;;;;;;;183.30;48.80;;;;;;;;;;5030928;28;20460;-79
2023/02/23 12:12:28;;;;;;;173.07;46.90;;;;;;;;;;5026565;28;20489;-74
2023/02/23 12:15:00;;;;;;;153.70;43.53;;;;;;;;;;5032067;28;20563;-80
2023/02/23 12:17:30;;;;;;;164.37;45.27;;;;;;;;;;5013922;28;20500;-77
2023/02/23 12:19:59;;;;;;;156.77;43.80;;;;;;;;;;5019267;28;20462;-76
2023/02/23 12:22:29;;;;;;;158.40;44.20;;;;;;;;;;5029710;28;20469;-76
2023/02/23 12:24:59;;;;;;;155.57;42.90;;;;;;;;;;5020633;28;20514;-78
2023/02/23 12:27:30;;;;;;;153.50;36.67;;;;;;;;;;5034136;28;20453;-76
2023/02/23 12:30:03;;;;;;;164.77;40.50;;;;;;;;;;5035638;28;20461;-77
2023/02/23 12:32:40;;;;;;;170.70;42.53;;;;;;;;;;5024716;28;20473;-77
2023/02/23 12:35:11;;;;;;;154.70;40.87;;;;;;;;;;5025913;28;20808;-78
2023/02/23 12:37:40;;;;;;;164.40;45.07;;;;;;;;;;5031826;28;20482;-78
2023/02/23 12:40:17;;;;;;;149.33;37.20;;;;;;;;;;5035981;28;20457;-76
2023/02/23 12:42:47;;;;;;;150.70;42.03;;;;;;;;;;5036810;28;20481;-77
2023/02/23 12:45:18;;;;;;;157.73;41.57;;;;;;;;;;5037236;28;20461;-78
2023/02/23 12:47:49;;;;;;;178.30;42.20;;;;;;;;;;5045032;28;20861;-76
2023/02/23 12:50:22;;;;;;;166.23;43.77;;;;;;;;;;5034675;28;20524;-77
2023/02/23 12:52:52;;;;;;;169.03;40.87;;;;;;;;;;5019770;28;20482;-76
2023/02/23 12:55:25;;;;;;;139.95;39.70;;;;;;;;;;5025498;28;20468;-76
2023/02/23 12:57:55;;;;;;;208.48;44.80;;;;;;;;;;5032120;28;20218;-78
2023/02/23 13:00:30;;;;;;;168.68;39.53;;;;;;;;;;5037283;28;20199;-75
2023/02/23 13:03:09;;;;;;;133.93;36.73;;;;;;;;;;5022741;28;20699;-77
2023/02/23 13:05:40;;;;;;;136.63;37.47;;;;;;;;;;5040428;28;20937;-77
2023/02/23 13:08:12;;;;;;;152.73;38.40;;;;;;;;;;5025912;28;20811;-76
2023/02/23 13:10:43;;;;;;;147.18;37.05;;;;;;;;;;5033043;28;20465;-76
2023/02/23 13:13:19;;;;;;;158.90;39.77;;;;;;;;;;5022681;28;20207;-77
2023/02/23 13:15:56;;;;;;;151.63;38.50;;;;;;;;;;5020827;28;20569;-76
2023/02/23 13:18:26;;;;;;;162.53;35.50;;;;;;;;;;5029115;28;20477;-76
2023/02/23 13:20:55;;;;;;;146.53;38.37;;;;;;;;;;5029080;28;20488;-77
2023/02/23 13:23:27;;;;;;;124.53;34.87;;;;;;;;;;5021273;28;20454;-76
2023/02/23 13:25:56;;;;;;;165.23;36.13;;;;;;;;;;5029219;28;20453;-76
2023/02/23 13:28:29;;;;;;;132.57;35.47;;;;;;;;;;5025818;28;20549;-76
2023/02/23 13:30:57;;;;;;;137.52;36.85;;;;;;;;;;5019415;28;20493;-75
2023/02/23 13:33:30;;;;;;;144.37;39.63;;;;;;;;;;5014848;28;20206;-75
2023/02/23 13:35:57;;;;;;;149.17;41.70;;;;;;;;;;5034230;28;20520;-77
2023/02/23 13:38:31;;;;;;;158.03;38.07;;;;;;;;;;5012195;28;20490;-76
2023/02/23 13:41:05;;;;;;;157.70;39.53;;;;;;;;;;5029301;28;20489;-76
2023/02/23 13:43:34;;;;;;;151.33;40.00;;;;;;;;;;5032512;28;20465;-78
2023/02/23 13:46:13;;;;;;;133.87;36.17;;;;;;;;;;5023171;28;20947;-76
2023/02/23 13:48:47;;;;;;;124.57;34.77;;;;;;;;;;5018408;28;20461;-75
2023/02/23 13:51:17;;;;;;;112.40;33.93;;;;;;;;;;5023626;28;20612;-76
2023/02/23 13:53:48;;;;;;;130.47;32.37;;;;;;;;;;5023262;28;20458;-75
2023/02/23 13:56:17;;;;;;;116.80;29.77;;;;;;;;;;5030524;28;20461;-78
2023/02/23 13:58:46;;;;;;;100.17;29.53;;;;;;;;;;5035049;28;20481;-77
2023/02/23 14:01:16;;;;;;;94.33;28.50;;;;;;;;;;5033778;28;20484;-76
2023/02/23 14:03:47;;;;;;;103.27;26.97;;;;;;;;;;5024111;28;21131;-77
2023/02/23 14:06:16;;;;;;;91.00;29.77;;;;;;;;;;5035836;28;20468;-76
2023/02/23 14:08:44;;;;;;;83.00;25.83;;;;;;;;;;5035740;28;20544;-77
2023/02/23 14:11:11;;;;;;;101.77;26.30;;;;;;;;;;5038403;28;20465;-76
2023/02/23 14:13:41;;;;;;;87.10;29.40;;;;;;;;;;5029749;28;20445;-77
2023/02/23 14:16:10;;;;;;;105.73;27.00;;;;;;;;;;5031177;28;20446;-78
2023/02/23 14:18:51;;;;;;;101.60;27.37;;;;;;;;;;5025970;28;20497;-78
2023/02/23 14:21:24;;;;;;;74.53;24.30;;;;;;;;;;5030389;28;20508;-76
2023/02/23 14:23:52;;;;;;;92.17;26.80;;;;;;;;;;5028835;28;20450;-76
2023/02/23 14:26:34;;;;;;;94.47;27.63;;;;;;;;;;5016231;28;20454;-76
2023/02/23 14:29:17;;;;;;;83.20;26.07;;;;;;;;;;5026948;28;20956;-76
2023/02/23 14:31:54;;;;;;;86.40;25.47;;;;;;;;;;5011220;28;20465;-82
2023/02/23 14:34:22;;;;;;;81.10;24.50;;;;;;;;;;5032217;28;20462;-84
2023/02/23 14:36:52;;;;;;;76.97;24.67;;;;;;;;;;5023599;28;20481;-81
2023/02/23 14:39:23;;;;;;;87.40;24.90;;;;;;;;;;5034317;28;20548;-77
2023/02/23 14:41:51;;;;;;;74.03;23.67;;;;;;;;;;5019044;28;20489;-76
2023/02/23 14:44:19;;;;;;;74.57;22.73;;;;;;;;;;5029981;28;20555;-76
2023/02/23 14:46:54;;;;;;;81.87;24.27;;;;;;;;;;5036189;28;20924;-77
2023/02/23 14:49:23;;;;;;;78.70;22.53;;;;;;;;;;5025089;28;20598;-76
2023/02/23 14:51:52;;;;;;;62.10;22.57;;;;;;;;;;5028644;28;20470;-74
2023/02/23 14:54:24;;;;;;;58.43;22.17;;;;;;;;;;5034254;28;20437;-75
2023/02/23 14:56:52;;;;;;;61.00;21.30;;;;;;;;;;5023904;28;20811;-74
2023/02/23 14:59:20;;;;;;;65.53;23.10;;;;;;;;;;5032117;28;20489;-75
2023/02/23 15:01:48;;;;;;;72.10;21.57;;;;;;;;;;5027943;28;20983;-74
2023/02/23 15:04:18;;;;;;;74.73;25.80;;;;;;;;;;5030382;28;20796;-74
2023/02/23 15:06:46;;;;;;;79.00;25.40;;;;;;;;;;5026901;28;20465;-74
2023/02/23 15:09:17;;;;;;;66.87;22.60;;;;;;;;;;5032924;28;20453;-75
2023/02/23 15:11:47;;;;;;;73.57;24.37;;;;;;;;;;5017306;28;20581;-75
2023/02/23 15:14:15;;;;;;;73.97;24.43;;;;;;;;;;5031362;28;20488;-74
2023/02/23 15:16:43;;;;;;;64.33;25.23;;;;;;;;;;5033971;28;20496;-75
2023/02/23 15:19:16;;;;;;;68.80;23.57;;;;;;;;;;5024007;28;21048;-75
2023/02/23 15:21:43;;;;;;;69.47;24.90;;;;;;;;;;5031781;28;20473;-74
2023/02/23 15:24:15;;;;;;;72.00;24.37;;;;;;;;;;5021815;28;20465;-75
2023/02/23 15:26:42;;;;;;;78.23;24.80;;;;;;;;;;5013820;28;20865;-75
2023/02/23 15:29:13;;;;;;;75.43;23.00;;;;;;;;;;5017959;28;20441;-75
2023/02/23 15:31:48;;;;;;;68.30;22.43;;;;;;;;;;5026012;28;20485;-73
2023/02/23 15:34:18;;;;;;;74.43;25.13;;;;;;;;;;5005779;28;20472;-73
2023/02/23 15:36:46;;;;;;;68.57;23.60;;;;;;;;;;5012202;28;20494;-74
2023/02/23 15:39:17;;;;;;;70.63;23.40;;;;;;;;;;5009660;28;20480;-73
2023/02/23 15:41:47;;;;;;;56.37;21.90;;;;;;;;;;5003352;28;20485;-74
2023/02/23 15:44:15;;;;;;;69.97;24.10;;;;;;;;;;5018195;28;20465;-75
2023/02/23 15:46:43;;;;;;;78.97;23.67;;;;;;;;;;5035884;28;20457;-74
2023/02/23 15:49:12;;;;;;;76.13;24.10;;;;;;;;;;5045055;28;20437;-74
2023/02/23 15:51:43;;;;;;;73.60;25.60;;;;;;;;;;5028575;28;20465;-73
2023/02/23 15:54:14;;;;;;;57.90;22.20;;;;;;;;;;5030044;28;20562;-73
2023/02/23 15:56:45;;;;;;;69.17;23.00;;;;;;;;;;5029125;28;20951;-75
2023/02/23 15:59:14;;;;;;;65.90;21.73;;;;;;;;;;5031810;28;20515;-74
2023/02/23 16:01:43;;;;;;;78.03;23.90;;;;;;;;;;5015534;28;20474;-71
2023/02/23 16:04:16;;;;;;;69.57;21.70;;;;;;;;;;5024709;28;20461;-74
2023/02/23 16:06:50;;;;;;;79.37;24.37;;;;;;;;;;5031673;28;20713;-74
2023/02/23 16:09:25;;;;;;;74.83;23.97;;;;;;;;;;5028554;28;20785;-74
2023/02/23 16:11:55;;;;;;;69.43;23.40;;;;;;;;;;5029672;28;20496;-75
2023/02/23 16:14:23;;;;;;;71.37;24.17;;;;;;;;;;5020245;28;20466;-74
2023/02/23 16:16:51;;;;;;;76.57;26.35;;;;;;;;;;5034683;28;20468;-74
2023/02/23 16:19:19;;;;;;;71.40;24.60;;;;;;;;;;5021124;28;20242;-75
2023/02/23 16:21:52;;;;;;;96.20;26.40;;;;;;;;;;4996355;28;20235;-75
2023/02/23 16:24:21;;;;;;;87.43;25.55;;;;;;;;;;5004602;28;20465;-76
2023/02/23 16:26:50;;;;;;;87.63;25.55;;;;;;;;;;5008627;28;20204;-75
2023/02/23 16:29:22;;;;;;;78.72;22.92;;;;;;;;;;4997857;28;20617;-75
2023/02/23 16:31:51;;;;;;;82.00;24.13;;;;;;;;;;4998130;28;20226;-73
2023/02/23 16:34:20;;;;;;;81.97;24.60;;;;;;;;;;4998515;28;20229;-74
2023/02/23 16:36:50;;;;;;;86.75;24.13;;;;;;;;;;5001216;28;20461;-75
2023/02/23 16:39:17;;;;;;;81.27;25.00;;;;;;;;;;5004144;28;20215;-75
2023/02/23 16:41:46;;;;;;;85.77;25.73;;;;;;;;;;4999142;28;20489;-75
2023/02/23 16:44:16;;;;;;;73.17;26.40;;;;;;;;;;5000540;28;20450;-74
2023/02/23 16:47:10;;;;;;;97.15;24.83;;;;;;;;;;5003686;28;20882;-74
2023/02/23 16:49:37;;;;;;;101.07;27.33;;;;;;;;;;5006940;28;20222;-75
2023/02/23 16:52:11;;;;;;;81.47;25.73;;;;;;;;;;5001950;28;20222;-75
2023/02/23 16:54:38;;;;;;;81.43;23.70;;;;;;;;;;5002733;28;20453;-74
2023/02/23 16:57:07;;;;;;;91.57;25.87;;;;;;;;;;5000898;28;20982;-75
2023/02/23 16:59:34;;;;;;;63.10;21.93;;;;;;;;;;4998493;28;21044;-74
2023/02/23 17:02:04;;;;;;;64.70;19.83;;;;;;;;;;4998559;28;20481;-74
2023/02/23 17:04:31;;;;;;;55.23;20.20;;;;;;;;;;4995627;28;20454;-75